Time;durP1;ratioP1;P1;durP2;ratioP2;P2;SDS_P1;SDS_P2;PMS_P1;PMS_P2;Temp;Humidity;BMP_temperature;BMP_pressure;BME280_temperature;BME280_humidity;BME280_pressure;Samples;Min_cycle;Max_cycle;Signal;HPM_P1;HPM_P2
2023/06/18 00:00:01;;;;;;;11.50;10.40;;;;;;;14.96;100.00;101498.44;5061406;28;20204;-71
2023/06/18 00:02:26;;;;;;;11.70;10.60;;;;;;;14.94;100.00;101496.69;5061207;28;20256;-71
2023/06/18 00:04:53;;;;;;;13.33;11.70;;;;;;;14.88;100.00;101502.66;5064262;28;20343;-71
2023/06/18 00:07:18;;;;;;;11.50;10.40;;;;;;;14.82;100.00;101500.00;5064158;28;20196;-71
2023/06/18 00:09:44;;;;;;;11.30;10.20;;;;;;;14.82;100.00;101502.56;5065590;28;20197;-70
2023/06/18 00:12:10;;;;;;;11.87;10.77;;;;;;;14.77;100.00;101496.50;5066268;28;20204;-71
2023/06/18 00:14:36;;;;;;;12.63;11.33;;;;;;;14.71;100.00;101500.69;5060500;28;20209;-70
2023/06/18 00:17:02;;;;;;;11.87;10.77;;;;;;;14.66;100.00;101497.19;5064263;28;20673;-70
2023/06/18 00:19:27;;;;;;;12.67;11.40;;;;;;;14.71;100.00;101505.84;5059522;28;20339;-70
2023/06/18 00:21:53;;;;;;;12.83;11.57;;;;;;;14.72;100.00;101500.72;5063670;28;20204;-70
2023/06/18 00:24:18;;;;;;;11.53;10.30;;;;;;;14.67;100.00;101502.38;5066067;28;20326;-71
2023/06/18 00:26:44;;;;;;;12.37;11.17;;;;;;;14.66;100.00;101505.81;5063978;28;20189;-70
2023/06/18 00:29:10;;;;;;;12.77;11.47;;;;;;;14.61;100.00;101499.72;5057741;28;20213;-70
2023/06/18 00:31:36;;;;;;;12.37;11.27;;;;;;;14.58;100.00;101498.81;5058769;28;20549;-70
2023/06/18 00:34:05;;;;;;;12.13;10.93;;;;;;;14.49;100.00;101502.13;5067684;28;20229;-70
2023/06/18 00:36:31;;;;;;;12.00;10.80;;;;;;;14.40;100.00;101499.41;5057639;28;20185;-70
2023/06/18 00:38:57;;;;;;;13.60;12.30;;;;;;;14.43;100.00;101491.75;5065456;28;20201;-71
2023/06/18 00:41:27;;;;;;;12.20;11.00;;;;;;;14.44;100.00;101501.19;5065519;28;20192;-70
2023/06/18 00:43:53;;;;;;;12.83;11.53;;;;;;;14.35;100.00;101490.75;5057178;28;20213;-70
2023/06/18 00:46:20;;;;;;;12.33;11.13;;;;;;;14.38;100.00;101500.25;5059706;28;20212;-71
2023/06/18 00:48:45;;;;;;;12.50;11.20;;;;;;;14.35;100.00;101495.91;5065573;28;20224;-70
2023/06/18 00:51:16;;;;;;;12.77;11.17;;;;;;;14.29;100.00;101503.56;5065759;28;20189;-71
2023/06/18 00:53:42;;;;;;;13.30;11.30;;;;;;;14.35;100.00;101498.50;5078640;28;20555;-71
2023/06/18 00:56:07;;;;;;;14.20;12.80;;;;;;;14.40;100.00;101493.38;5064090;28;20201;-71
2023/06/18 00:58:33;;;;;;;13.50;12.20;;;;;;;14.38;100.00;101490.81;5065901;28;20266;-71
2023/06/18 01:00:59;;;;;;;13.47;12.17;;;;;;;14.31;100.00;101499.28;5062543;28;20275;-70
2023/06/18 01:03:25;;;;;;;13.47;12.17;;;;;;;14.29;100.00;101500.97;5064142;28;20192;-70
2023/06/18 01:06:01;;;;;;;13.87;12.47;;;;;;;14.27;100.00;101501.81;5064006;28;20283;-71
2023/06/18 01:08:28;;;;;;;13.47;12.17;;;;;;;14.19;100.00;101498.22;5077765;28;20204;-71
2023/06/18 01:11:03;;;;;;;13.80;12.33;;;;;;;14.20;100.00;101492.22;5064552;28;20189;-71
2023/06/18 01:13:30;;;;;;;13.53;12.13;;;;;;;14.16;100.00;101493.00;5065461;28;20184;-70
2023/06/18 01:16:03;;;;;;;12.47;11.27;;;;;;;14.11;100.00;101490.38;5065536;28;20193;-71
2023/06/18 01:18:35;;;;;;;12.53;11.40;;;;;;;14.16;100.00;101486.16;5058538;28;20196;-70
2023/06/18 01:21:09;;;;;;;13.80;12.50;;;;;;;14.13;100.00;101480.94;5065404;28;20831;-71
2023/06/18 01:23:54;;;;;;;15.10;12.80;;;;;;;14.05;100.00;101476.53;5061868;28;20231;-71
2023/06/18 01:26:22;;;;;;;13.67;12.37;;;;;;;14.08;100.00;101487.72;5062745;28;20205;-71
2023/06/18 01:28:51;;;;;;;13.57;12.27;;;;;;;14.05;100.00;101490.25;5061171;28;20236;-70
2023/06/18 01:31:23;;;;;;;12.63;11.37;;;;;;;14.02;100.00;101486.78;5064541;28;20591;-71
2023/06/18 01:33:53;;;;;;;13.47;12.17;;;;;;;13.98;100.00;101493.59;5065465;28;20285;-70
2023/06/18 01:36:47;;;;;;;13.90;12.60;;;;;;;13.95;100.00;101487.53;5062443;28;20655;-71
2023/06/18 01:39:23;;;;;;;13.73;12.43;;;;;;;13.87;100.00;101487.41;5085886;28;20227;-71
2023/06/18 01:41:56;;;;;;;13.53;12.23;;;;;;;13.89;100.00;101487.41;5069411;28;20285;-71
2023/06/18 01:44:24;;;;;;;14.03;12.73;;;;;;;13.85;100.00;101481.34;5063004;28;20212;-71
2023/06/18 01:46:53;;;;;;;13.60;12.30;;;;;;;13.77;100.00;101476.94;5061161;28;20659;-71
2023/06/18 01:49:20;;;;;;;14.23;12.93;;;;;;;13.81;100.00;101484.72;5053207;28;20201;-71
2023/06/18 01:51:48;;;;;;;12.80;11.50;;;;;;;13.78;100.00;101478.66;5087065;28;20622;-71
2023/06/18 01:54:17;;;;;;;12.43;11.13;;;;;;;13.74;100.00;101489.75;5066518;28;20215;-71
2023/06/18 01:56:43;;;;;;;12.80;11.53;;;;;;;13.71;100.00;101484.56;5068931;28;20189;-71
2023/06/18 01:59:11;;;;;;;11.57;10.47;;;;;;;13.60;100.00;101488.63;5066817;28;20193;-71
2023/06/18 02:01:40;;;;;;;12.57;11.27;;;;;;;13.60;100.00;101484.38;5042277;28;20194;-71
2023/06/18 02:04:05;;;;;;;13.33;12.03;;;;;;;13.58;100.00;101478.31;5067545;28;20293;-71
2023/06/18 02:06:31;;;;;;;12.37;11.17;;;;;;;13.56;100.00;101480.00;5075437;28;20212;-71
2023/06/18 02:08:56;;;;;;;12.73;11.53;;;;;;;13.48;100.00;101479.00;5066115;28;20220;-71
2023/06/18 02:11:22;;;;;;;12.47;11.27;;;;;;;13.45;100.00;101480.66;5068283;28;20204;-71
2023/06/18 02:13:48;;;;;;;12.57;11.27;;;;;;;13.44;100.00;101482.34;5068067;28;20314;-71
2023/06/18 02:16:13;;;;;;;12.70;11.50;;;;;;;13.41;100.00;101479.75;5059844;28;20220;-71
2023/06/18 02:18:40;;;;;;;12.90;11.70;;;;;;;13.37;100.00;101480.53;5062297;28;20189;-70
2023/06/18 02:21:05;;;;;;;12.60;11.40;;;;;;;13.32;100.00;101487.28;5068171;28;20188;-71
2023/06/18 02:23:31;;;;;;;11.70;10.60;;;;;;;13.32;100.00;101487.28;5064126;28;20193;-70
2023/06/18 02:25:58;;;;;;;12.17;10.97;;;;;;;13.32;100.00;101482.16;5062547;28;20602;-71
2023/06/18 02:28:23;;;;;;;12.23;11.03;;;;;;;13.28;100.00;101480.34;5063801;28;20212;-71
2023/06/18 02:30:49;;;;;;;12.27;11.03;;;;;;;13.29;100.00;101487.22;5058474;28;20186;-71
2023/06/18 02:33:17;;;;;;;11.97;10.77;;;;;;;13.26;100.00;101482.00;5063388;28;20266;-71
2023/06/18 02:35:43;;;;;;;12.10;10.90;;;;;;;13.23;100.00;101481.97;5062305;28;20209;-71
2023/06/18 02:38:09;;;;;;;13.07;11.77;;;;;;;13.20;100.00;101484.47;5061839;28;20235;-70
2023/06/18 02:40:35;;;;;;;13.60;12.20;;;;;;;13.18;100.00;101475.88;5065313;28;20185;-73
2023/06/18 02:43:05;;;;;;;12.97;11.53;;;;;;;13.17;100.00;101481.84;5062428;28;20186;-71
2023/06/18 02:45:30;;;;;;;12.60;11.30;;;;;;;13.15;100.00;101483.53;5076931;28;20217;-71
2023/06/18 02:47:56;;;;;;;12.50;11.20;;;;;;;13.14;100.00;101486.06;5066924;28;20567;-71
2023/06/18 02:50:21;;;;;;;12.57;10.80;;;;;;;13.04;100.00;101482.47;5061378;28;20192;-71
2023/06/18 02:52:47;;;;;;;13.47;12.07;;;;;;;13.05;100.00;101484.19;5062627;28;20685;-71
2023/06/18 02:55:13;;;;;;;12.13;10.97;;;;;;;13.04;100.00;101481.59;5067006;28;20251;-72
2023/06/18 02:57:40;;;;;;;12.97;11.63;;;;;;;13.07;100.00;101489.38;5082704;28;20189;-71
2023/06/18 03:00:14;;;;;;;13.13;11.83;;;;;;;12.98;100.00;101497.75;5062864;28;20320;-71
2023/06/18 03:02:42;;;;;;;12.47;11.27;;;;;;;13.03;100.00;101487.56;5080791;28;20189;-69
2023/06/18 03:05:13;;;;;;;11.80;10.60;;;;;;;13.03;100.00;101496.13;5061399;28;20274;-70
2023/06/18 03:07:39;;;;;;;11.50;10.40;;;;;;;12.97;100.00;101490.88;5060966;28;20210;-69
2023/06/18 03:10:06;;;;;;;11.03;10.03;;;;;;;13.04;100.00;101494.44;5064108;28;20224;-70
2023/06/18 03:12:32;;;;;;;11.37;10.27;;;;;;;13.02;100.00;101491.84;5063952;28;20550;-70
2023/06/18 03:15:00;;;;;;;11.07;9.97;;;;;;;13.01;100.00;101495.25;5062807;28;20327;-70
2023/06/18 03:17:27;;;;;;;11.10;10.00;;;;;;;12.95;100.00;101502.81;5022824;28;1132063;-70
2023/06/18 03:19:53;;;;;;;12.67;11.40;;;;;;;13.00;100.00;101505.50;5083137;28;20776;-70
2023/06/18 03:22:20;;;;;;;11.50;10.40;;;;;;;13.00;100.00;101503.81;5065304;28;20212;-70
2023/06/18 03:24:46;;;;;;;10.80;9.77;;;;;;;13.03;100.00;101508.13;5067878;28;20216;-70
2023/06/18 03:27:11;;;;;;;11.23;10.13;;;;;;;13.00;100.00;101508.06;5063277;28;20188;-70
2023/06/18 03:29:37;;;;;;;11.53;10.30;;;;;;;13.02;100.00;101512.41;5063455;28;20292;-70
2023/06/18 03:32:04;;;;;;;10.83;9.83;;;;;;;13.01;100.00;101512.38;5062194;28;20208;-69
2023/06/18 03:34:32;;;;;;;10.90;9.80;;;;;;;12.98;100.00;101513.16;5079186;28;20295;-70
2023/06/18 03:37:00;;;;;;;11.70;10.70;;;;;;;13.00;100.00;101516.66;5065255;28;20228;-70
2023/06/18 03:39:27;;;;;;;11.80;10.63;;;;;;;12.98;100.00;101515.75;5066281;28;20181;-70
2023/06/18 03:41:53;;;;;;;12.20;11.07;;;;;;;13.01;100.00;101513.25;5067086;28;20197;-70
2023/06/18 03:44:19;;;;;;;11.20;10.10;;;;;;;13.02;100.00;101514.97;5066337;28;20220;-70
2023/06/18 03:46:45;;;;;;;10.93;9.93;;;;;;;13.04;100.00;101518.47;5059249;28;20566;-69
2023/06/18 03:49:11;;;;;;;11.77;10.70;;;;;;;13.05;100.00;101516.72;5066881;28;20209;-70
2023/06/18 03:51:36;;;;;;;11.70;10.60;;;;;;;13.03;100.00;101519.28;5063043;28;20189;-70
2023/06/18 03:54:02;;;;;;;12.10;11.00;;;;;;;13.07;100.00;101507.38;5062420;28;20216;-70
2023/06/18 03:56:28;;;;;;;11.40;10.30;;;;;;;13.12;100.00;101509.16;5065246;28;20189;-70
2023/06/18 03:58:54;;;;;;;11.63;10.53;;;;;;;13.19;100.00;101505.00;5064624;28;20185;-69
2023/06/18 04:01:20;;;;;;;11.37;10.37;;;;;;;13.19;100.00;101511.03;5063816;28;20736;-70
2023/06/18 04:03:45;;;;;;;11.30;10.20;;;;;;;13.21;100.00;101505.94;5063938;28;20630;-70
2023/06/18 04:06:11;;;;;;;12.17;11.07;;;;;;;13.29;100.00;101504.34;5061066;28;20188;-70
2023/06/18 04:08:36;;;;;;;11.93;10.93;;;;;;;13.34;100.00;101508.75;5062516;28;20217;-70
2023/06/18 04:11:02;;;;;;;11.57;10.57;;;;;;;13.39;100.00;101511.44;5065226;28;20197;-70
2023/06/18 04:13:28;;;;;;;12.30;11.20;;;;;;;13.46;100.00;101519.28;5062218;28;20284;-70
2023/06/18 04:15:54;;;;;;;12.40;11.27;;;;;;;13.57;100.00;101512.63;5063866;28;20236;-70
2023/06/18 04:18:20;;;;;;;13.77;12.57;;;;;;;13.65;100.00;101511.03;5059512;28;20196;-70
2023/06/18 04:20:46;;;;;;;14.27;12.97;;;;;;;13.72;100.00;101504.31;5077013;28;20198;-70
2023/06/18 04:23:14;;;;;;;14.03;12.73;;;;;;;13.81;100.00;101502.72;5059180;28;20259;-70
2023/06/18 04:25:40;;;;;;;14.80;13.50;;;;;;;13.86;100.00;101503.69;5062113;28;20200;-70
2023/06/18 04:28:06;;;;;;;14.33;12.93;;;;;;;13.94;100.00;101503.78;5064953;28;20244;-70
2023/06/18 04:30:31;;;;;;;14.63;13.23;;;;;;;14.03;100.00;101511.66;5064510;28;20196;-70
2023/06/18 04:32:58;;;;;;;14.43;13.03;;;;;;;14.10;100.00;101508.38;5058582;28;20193;-70
2023/06/18 04:35:24;;;;;;;15.47;13.87;;;;;;;14.18;100.00;101511.94;5079848;28;20212;-70
2023/06/18 04:37:50;;;;;;;16.63;14.70;;;;;;;14.27;100.00;101502.66;5062551;28;20185;-70
2023/06/18 04:40:15;;;;;;;16.90;15.30;;;;;;;14.36;100.00;101499.38;5063704;28;20193;-70
2023/06/18 04:42:42;;;;;;;17.77;15.97;;;;;;;14.46;100.00;101501.22;5046910;28;20661;-70
2023/06/18 04:45:12;;;;;;;16.03;14.53;;;;;;;14.54;100.00;101500.47;5046500;28;20610;-70
2023/06/18 04:47:39;;;;;;;17.43;15.63;;;;;;;14.66;100.00;101510.09;5077473;28;20209;-73
2023/06/18 04:50:06;;;;;;;19.80;17.90;;;;;;;14.75;100.00;101505.06;5062006;28;20196;-70
2023/06/18 04:52:35;;;;;;;20.43;18.40;;;;;;;14.85;100.00;101500.03;5048662;28;20193;-69
2023/06/18 04:55:00;;;;;;;19.73;17.67;;;;;;;14.95;100.00;101504.47;5065402;28;20281;-70
2023/06/18 04:57:27;;;;;;;19.80;17.83;;;;;;;15.06;100.00;101496.88;5078090;28;20220;-71
2023/06/18 04:59:54;;;;;;;20.47;18.30;;;;;;;15.17;100.00;101505.56;5058801;28;20197;-71
2023/06/18 05:02:20;;;;;;;24.23;21.63;;;;;;;15.27;100.00;101497.97;5060152;28;20564;-71
2023/06/18 05:04:45;;;;;;;22.07;19.83;;;;;;;15.37;100.00;101499.81;5071524;28;20210;-72
2023/06/18 05:07:12;;;;;;;25.17;22.77;;;;;;;15.47;100.00;101499.06;5066666;28;20197;-71
2023/06/18 05:09:40;;;;;;;25.57;23.07;;;;;;;15.56;100.00;101508.63;5057560;28;20251;-71
2023/06/18 05:12:06;;;;;;;26.77;24.07;;;;;;;15.67;100.00;101497.56;5062108;28;20189;-72
2023/06/18 05:14:31;;;;;;;24.33;21.83;;;;;;;15.83;100.00;101514.91;5078578;28;20702;-71
2023/06/18 05:16:58;;;;;;;24.47;22.07;;;;;;;15.94;100.00;101510.69;5064341;28;20201;-71
2023/06/18 05:19:23;;;;;;;25.40;22.90;;;;;;;16.08;100.00;101511.69;5063900;28;20219;-72
2023/06/18 05:21:50;;;;;;;25.70;23.30;;;;;;;16.10;100.00;101516.84;5063315;28;20196;-72
2023/06/18 05:24:16;;;;;;;25.00;22.50;;;;;;;16.19;100.00;101519.50;5061957;28;20686;-73
2023/06/18 05:26:43;;;;;;;25.37;22.77;;;;;;;16.33;100.00;101520.47;5059866;28;20243;-72
2023/06/18 05:29:08;;;;;;;23.90;21.47;;;;;;;16.46;100.00;101519.72;5062923;28;20255;-72
2023/06/18 05:31:34;;;;;;;24.47;22.07;;;;;;;16.55;100.00;101520.66;5063568;28;20218;-71
2023/06/18 05:34:02;;;;;;;24.83;22.47;;;;;;;16.58;100.00;101525.00;5062375;28;20213;-70
2023/06/18 05:36:27;;;;;;;25.50;22.97;;;;;;;16.67;100.00;101523.31;5059632;28;20542;-72
2023/06/18 05:38:59;;;;;;;26.03;23.43;;;;;;;16.68;100.00;101534.53;5061046;28;20231;-72
2023/06/18 05:41:27;;;;;;;23.17;20.70;;;;;;;16.84;100.00;101525.97;5063166;28;20189;-71
2023/06/18 05:43:53;;;;;;;23.40;21.10;;;;;;;16.99;100.00;101529.50;5055169;28;20220;-71
2023/06/18 05:46:18;;;;;;;24.53;22.17;;;;;;;17.04;100.00;101527.78;5062058;28;20197;-72
2023/06/18 05:48:44;;;;;;;23.77;21.50;;;;;;;17.25;100.00;101520.13;5059071;28;20679;-72
2023/06/18 05:51:16;;;;;;;22.03;19.83;;;;;;;17.43;100.00;101511.56;5051046;28;20296;-71
2023/06/18 05:53:42;;;;;;;22.47;20.27;;;;;;;17.54;100.00;101509.88;5064273;28;20284;-71
2023/06/18 05:56:08;;;;;;;20.50;18.40;;;;;;;17.70;100.00;101511.63;5063474;28;20654;-71
2023/06/18 05:58:33;;;;;;;20.93;18.97;;;;;;;17.77;100.00;101505.59;5063480;28;20554;-71
2023/06/18 06:00:59;;;;;;;20.17;18.17;;;;;;;18.02;100.00;101517.69;5058258;28;20222;-71
2023/06/18 06:03:25;;;;;;;20.60;18.60;;;;;;;18.02;100.00;101515.09;5078349;28;20190;-72
2023/06/18 06:05:50;;;;;;;20.17;18.07;;;;;;;18.11;100.00;101515.97;5046438;28;20343;-71
2023/06/18 06:08:16;;;;;;;22.40;20.10;;;;;;;18.13;100.00;101509.03;5051850;28;20217;-72
2023/06/18 06:10:46;;;;;;;21.73;19.63;;;;;;;18.15;100.00;101515.06;5056021;28;20666;-71
2023/06/18 06:13:11;;;;;;;21.73;19.63;;;;;;;18.36;100.00;101511.63;5067058;28;20294;-71
2023/06/18 06:15:39;;;;;;;21.93;19.73;;;;;;;18.35;100.00;101512.50;5052861;28;20592;-71
2023/06/18 06:18:04;;;;;;;20.70;18.63;;;;;;;18.46;100.00;101518.53;5064608;28;20193;-70
2023/06/18 06:20:30;;;;;;;20.40;18.37;;;;;;;18.57;100.00;101527.16;5061395;28;20185;-71
2023/06/18 06:22:55;;;;;;;19.93;17.87;;;;;;;18.98;100.00;101523.56;5079884;28;20203;-71
2023/06/18 06:25:21;;;;;;;19.23;17.23;;;;;;;19.25;100.00;101530.44;5063779;28;20296;-72
2023/06/18 06:27:47;;;;;;;20.10;18.10;;;;;;;19.30;100.00;101528.66;5064273;28;20698;-72
2023/06/18 06:30:12;;;;;;;20.30;18.33;;;;;;;19.37;100.00;101522.56;5066255;28;20194;-72
2023/06/18 06:32:38;;;;;;;18.37;16.67;;;;;;;19.61;100.00;101522.41;5080995;28;20255;-70
2023/06/18 06:35:04;;;;;;;18.97;17.10;;;;;;;19.71;100.00;101526.69;5060099;28;20220;-71
2023/06/18 06:37:30;;;;;;;19.47;17.47;;;;;;;19.82;100.00;101528.34;5065054;28;20276;-71
2023/06/18 06:39:57;;;;;;;18.30;16.50;;;;;;;19.96;100.00;101528.22;5064556;28;20189;-71
2023/06/18 06:42:23;;;;;;;19.00;17.10;;;;;;;19.77;100.00;101524.03;5065560;28;20275;-73
2023/06/18 06:45:09;;;;;;;16.33;14.70;;;;;;;20.16;100.00;101529.81;5061410;28;20229;-72
2023/06/18 06:47:55;;;;;;;16.87;15.17;;;;;;;20.50;100.00;101525.16;5061145;28;20612;-71
2023/06/18 06:50:33;;;;;;;17.50;15.50;;;;;;;20.64;100.00;101520.69;5057641;28;20196;-70
2023/06/18 06:53:04;;;;;;;18.73;16.87;;;;;;;20.37;100.00;101524.44;5060900;28;20193;-71
2023/06/18 06:55:29;;;;;;;17.57;15.93;;;;;;;20.52;100.00;101513.88;5058837;28;20227;-71
2023/06/18 06:57:56;;;;;;;17.53;15.80;;;;;;;20.72;100.00;101524.91;5065487;28;20224;-71
2023/06/18 07:00:22;;;;;;;17.40;15.70;;;;;;;20.84;100.00;101498.75;5060852;28;20189;-71
2023/06/18 07:02:47;;;;;;;17.13;15.40;;;;;;;20.98;100.00;101509.88;5062759;28;20192;-71
2023/06/18 07:05:13;;;;;;;16.20;14.50;;;;;;;21.20;100.00;101497.44;5059946;28;20242;-71
2023/06/18 07:07:39;;;;;;;15.17;13.77;;;;;;;21.45;100.00;101494.47;5062973;28;20930;-71
2023/06/18 07:10:05;;;;;;;15.50;14.03;;;;;;;21.59;100.00;101495.13;5065821;28;20197;-72
2023/06/18 07:12:31;;;;;;;13.67;12.37;;;;;;;21.78;100.00;101490.50;5065625;28;20338;-72
2023/06/18 07:14:56;;;;;;;14.27;12.87;;;;;;;21.86;100.00;101478.22;5064726;28;20567;-72
2023/06/18 07:17:21;;;;;;;13.37;12.17;;;;;;;21.94;100.00;101458.97;5064714;28;20208;-71
2023/06/18 07:19:47;;;;;;;12.80;11.53;;;;;;;22.11;100.00;101467.34;5066943;28;20342;-72
2023/06/18 07:22:12;;;;;;;11.73;10.43;;;;;;;22.44;100.00;101473.69;5061712;28;21157;-72
2023/06/18 07:24:38;;;;;;;9.70;8.80;;;;;;;22.63;100.00;101383.69;5063321;28;20294;-71
2023/06/18 07:27:03;;;;;;;11.07;10.00;;;;;;;22.60;100.00;101386.34;5059256;28;20243;-72
2023/06/18 07:29:30;;;;;;;9.20;7.88;;;;;;;22.69;100.00;101323.47;5065141;28;20213;-71
2023/06/18 07:31:55;;;;;;;7.10;6.50;;;;;;;22.98;100.00;101328.88;5078954;28;20198;-73
2023/06/18 07:34:21;;;;;;;9.63;7.07;;;;;;;23.18;100.00;101318.84;5060487;28;20209;-73
2023/06/18 07:36:46;;;;;;;8.35;7.38;;;;;;;23.13;100.00;101288.47;5064279;28;20723;-72
2023/06/18 07:39:11;;;;;;;7.63;6.90;;;;;;;23.38;100.00;101287.00;5064736;28;20193;-72
2023/06/18 07:41:37;;;;;;;6.68;5.47;;;;;;;23.39;96.81;101224.19;5063683;28;20194;-72
2023/06/18 07:44:02;;;;;;;5.97;5.38;;;;;;;23.47;95.48;101230.09;5064945;28;20239;-72
2023/06/18 07:46:28;;;;;;;5.82;5.32;;;;;;;23.76;98.80;101248.44;5065250;28;20564;-72
2023/06/18 07:48:53;;;;;;;6.18;5.55;;;;;;;23.89;93.34;101228.03;5059942;28;20213;-72
2023/06/18 07:51:19;;;;;;;6.10;5.50;;;;;;;24.10;93.47;101228.31;5059516;28;20547;-73
2023/06/18 07:53:45;;;;;;;5.53;5.13;;;;;;;24.07;85.61;101201.38;5059374;28;20745;-72
2023/06/18 07:56:10;;;;;;;7.68;6.18;;;;;;;24.23;89.20;101223.53;5062040;28;20201;-72
2023/06/18 07:58:36;;;;;;;6.30;5.50;;;;;;;24.15;87.31;101215.94;5062336;28;20193;-72
2023/06/18 08:01:01;;;;;;;5.55;5.05;;;;;;;24.35;88.56;101216.16;5048209;28;20204;-72
2023/06/18 08:03:27;;;;;;;6.10;4.63;;;;;;;24.45;74.01;101154.72;5061313;28;20193;-72
2023/06/18 08:05:52;;;;;;;4.55;3.92;;;;;;;24.45;59.74;101094.50;5075313;28;20267;-73
2023/06/18 08:08:18;;;;;;;4.75;3.88;;;;;;;24.74;63.05;101156.44;5063066;28;20299;-72
2023/06/18 08:10:43;;;;;;;4.15;3.75;;;;;;;24.88;57.80;101138.47;5062986;28;20196;-72
2023/06/18 08:13:09;;;;;;;5.35;4.85;;;;;;;24.55;64.76;101199.84;5063362;28;20201;-72
2023/06/18 08:15:34;;;;;;;4.00;3.70;;;;;;;24.83;60.54;101174.47;5063696;28;20215;-73
2023/06/18 08:17:59;;;;;;;4.47;3.78;;;;;;;25.10;57.37;101169.13;5060048;28;20289;-72
2023/06/18 08:20:25;;;;;;;4.68;3.85;;;;;;;25.09;56.27;101177.06;5060175;28;20299;-72
2023/06/18 08:22:51;;;;;;;4.45;4.00;;;;;;;25.36;60.57;101212.81;5061339;28;20309;-72
2023/06/18 08:25:16;;;;;;;7.03;3.97;;;;;;;25.29;56.88;101188.63;5063567;28;20709;-72
2023/06/18 08:27:42;;;;;;;4.90;4.10;;;;;;;25.08;58.43;101217.28;5064363;28;20745;-72
2023/06/18 08:30:07;;;;;;;5.80;4.40;;;;;;;25.20;57.77;101209.00;5063948;28;20200;-72
2023/06/18 08:32:33;;;;;;;4.82;4.43;;;;;;;25.58;57.75;101205.91;5064457;28;20248;-73
2023/06/18 08:34:58;;;;;;;4.55;4.13;;;;;;;25.93;55.88;101192.38;5067992;28;20221;-72
2023/06/18 08:37:24;;;;;;;4.97;4.13;;;;;;;25.86;53.13;101202.22;5059699;28;20271;-72
2023/06/18 08:39:49;;;;;;;5.38;3.83;;;;;;;25.76;50.29;101190.38;5062338;28;20217;-72
2023/06/18 08:42:20;;;;;;;4.97;4.43;;;;;;;25.45;47.80;101187.13;5063628;28;20208;-72
2023/06/18 08:44:46;;;;;;;5.00;4.50;;;;;;;25.07;46.33;101189.34;5064691;28;20221;-72
2023/06/18 08:47:12;;;;;;;5.10;4.15;;;;;;;24.83;44.90;101182.34;5063893;28;20733;-72
2023/06/18 08:49:41;;;;;;;4.57;4.10;;;;;;;25.32;47.99;101232.22;5059337;28;20226;-72
2023/06/18 08:52:08;;;;;;;4.38;3.97;;;;;;;26.11;50.55;101284.44;5062149;28;20561;-72
2023/06/18 08:54:35;;;;;;;4.95;4.03;;;;;;;26.44;51.93;101291.03;5078612;28;20255;-72
2023/06/18 08:57:26;;;;;;;5.03;4.43;;;;;;;26.57;51.24;101279.16;5063469;28;20690;-72
2023/06/18 08:59:54;;;;;;;5.45;4.55;;;;;;;26.18;49.53;101243.03;5060896;28;20188;-72
2023/06/18 09:02:21;;;;;;;5.38;4.57;;;;;;;25.92;51.57;101272.91;5062272;28;20197;-72
2023/06/18 09:04:47;;;;;;;4.63;4.20;;;;;;;26.55;49.81;101232.81;5058808;28;20213;-71
2023/06/18 09:07:12;;;;;;;5.80;4.68;;;;;;;26.42;50.57;101240.34;5057365;28;20655;-71
2023/06/18 09:09:38;;;;;;;4.95;4.32;;;;;;;26.84;49.81;101228.13;5047498;28;20214;-73
2023/06/18 09:12:04;;;;;;;4.53;4.13;;;;;;;26.90;49.20;101227.03;5061731;28;20196;-71
2023/06/18 09:14:29;;;;;;;5.72;4.25;;;;;;;26.80;46.25;101205.50;5063591;28;20208;-72
2023/06/18 09:16:56;;;;;;;4.50;4.07;;;;;;;27.22;45.57;101208.16;5058482;28;20571;-71
2023/06/18 09:19:23;;;;;;;4.13;3.72;;;;;;;27.38;45.18;101222.34;5060141;28;20197;-72
2023/06/18 09:21:49;;;;;;;4.82;4.43;;;;;;;27.63;44.94;101223.81;5064308;28;20199;-72
2023/06/18 09:24:19;;;;;;;5.82;4.15;;;;;;;27.73;45.10;101224.28;5066105;28;20223;-71
2023/06/18 09:26:45;;;;;;;4.82;4.43;;;;;;;27.78;45.06;101238.09;5059812;28;20193;-71
2023/06/18 09:29:11;;;;;;;5.60;4.28;;;;;;;27.58;43.17;101204.75;5066040;28;20277;-72
2023/06/18 09:31:41;;;;;;;4.70;4.30;;;;;;;27.42;44.75;101221.28;5061619;28;20204;-73
2023/06/18 09:34:15;;;;;;;5.93;4.78;;;;;;;27.50;42.97;101203.38;5060589;28;20216;-72
2023/06/18 09:36:42;;;;;;;5.25;4.80;;;;;;;27.17;45.28;101255.66;5055920;28;20708;-73
2023/06/18 09:39:35;;;;;;;4.63;4.22;;;;;;;27.65;44.44;101229.03;5061884;28;20220;-72
2023/06/18 09:42:09;;;;;;;4.68;4.22;;;;;;;28.25;44.37;101220.97;5062008;28;20263;-73
2023/06/18 09:44:35;;;;;;;5.22;4.35;;;;;;;28.29;42.22;101196.19;5062153;28;20646;-71
2023/06/18 09:47:03;;;;;;;7.47;4.80;;;;;;;28.29;43.29;101222.53;5064482;28;20201;-71
2023/06/18 09:49:30;;;;;;;4.53;4.13;;;;;;;28.45;42.36;101211.22;5061495;28;20295;-71
2023/06/18 09:51:55;;;;;;;4.70;4.30;;;;;;;28.66;43.72;101239.19;5065280;28;20834;-71
2023/06/18 09:54:21;;;;;;;5.35;4.55;;;;;;;28.62;43.08;101227.09;5066761;28;20219;-71
2023/06/18 09:56:57;;;;;;;4.93;4.50;;;;;;;28.51;43.16;101223.25;5066881;28;20268;-71
2023/06/18 09:59:23;;;;;;;4.82;4.43;;;;;;;28.58;43.77;101238.72;5065066;28;21558;-72
2023/06/18 10:01:49;;;;;;;6.63;6.10;;;;;;;28.43;43.88;101241.22;5065026;28;20251;-71
2023/06/18 10:04:14;;;;;;;4.93;4.47;;;;;;;28.56;42.54;101224.72;5067153;28;20694;-71
2023/06/18 10:06:44;;;;;;;5.50;4.88;;;;;;;28.72;42.81;101228.34;5059454;28;20275;-71
2023/06/18 10:09:10;;;;;;;4.50;4.10;;;;;;;28.93;42.28;101235.19;5062078;28;20252;-72
2023/06/18 10:11:37;;;;;;;5.15;4.65;;;;;;;29.02;40.86;101224.19;5064801;28;20231;-72
2023/06/18 10:14:06;;;;;;;4.55;4.15;;;;;;;29.24;41.28;101235.38;5067651;28;20316;-72
2023/06/18 10:16:34;;;;;;;4.88;4.47;;;;;;;29.38;43.11;101266.38;5065569;28;20267;-71
2023/06/18 10:19:11;;;;;;;4.85;4.43;;;;;;;29.56;42.44;101242.53;5067744;28;20291;-71
2023/06/18 10:21:44;;;;;;;4.90;4.50;;;;;;;29.63;41.46;101219.28;5063516;28;20189;-71
2023/06/18 10:24:17;;;;;;;5.05;4.55;;;;;;;29.70;41.40;101225.97;5082575;28;20220;-72
2023/06/18 10:26:43;;;;;;;4.30;3.90;;;;;;;30.03;41.55;101221.50;5059288;28;20204;-71
2023/06/18 10:29:12;;;;;;;4.80;4.40;;;;;;;30.04;40.33;101208.22;5065301;28;20290;-72
2023/06/18 10:31:38;;;;;;;4.68;4.20;;;;;;;30.16;39.46;101205.84;5059076;28;20190;-71
2023/06/18 10:34:05;;;;;;;4.63;4.22;;;;;;;30.21;41.33;101240.81;5059592;28;20945;-71
2023/06/18 10:36:30;;;;;;;4.78;4.38;;;;;;;30.33;39.96;101219.81;5059582;28;20654;-70
2023/06/18 10:38:57;;;;;;;4.70;4.30;;;;;;;30.13;38.81;101206.00;5062437;28;20190;-70
2023/06/18 10:41:23;;;;;;;4.68;4.28;;;;;;;30.21;39.14;101217.88;5063671;28;20189;-73
2023/06/18 10:43:51;;;;;;;5.07;4.20;;;;;;;30.24;40.11;101230.91;5056563;28;20812;-71
2023/06/18 10:46:17;;;;;;;5.10;4.70;;;;;;;29.64;38.56;101206.00;5062563;28;20323;-70
2023/06/18 10:49:11;;;;;;;4.55;4.18;;;;;;;30.13;39.05;101214.81;5084349;28;20201;-70
2023/06/18 10:51:36;;;;;;;4.35;4.00;;;;;;;30.37;37.62;101201.97;5059562;28;20201;-72
2023/06/18 10:54:19;;;;;;;4.78;4.38;;;;;;;29.98;38.67;101236.75;5065826;28;20243;-72
2023/06/18 10:56:55;;;;;;;4.97;4.38;;;;;;;30.40;38.63;101222.97;5059897;28;20197;-71
2023/06/18 10:59:43;;;;;;;4.13;3.60;;;;;;;30.37;38.61;101249.59;5066978;28;20532;-71
2023/06/18 11:02:11;;;;;;;5.57;4.38;;;;;;;30.13;36.59;101217.44;5063701;28;20211;-71
2023/06/18 11:04:37;;;;;;;4.20;3.90;;;;;;;30.44;37.12;101216.59;5065455;28;20234;-71
2023/06/18 11:07:26;;;;;;;6.80;4.13;;;;;;;30.75;37.36;101241.22;5068302;28;20196;-70
2023/06/18 11:10:02;;;;;;;3.88;3.58;;;;;;;30.84;35.69;101231.91;5068413;28;20225;-70